Time;durP1;ratioP1;P1;durP2;ratioP2;P2;SDS_P1;SDS_P2;PMS_P1;PMS_P2;Temp;Humidity;BMP_temperature;BMP_pressure;BME280_temperature;BME280_humidity;BME280_pressure;Samples;Min_cycle;Max_cycle;Signal;HPM_P1;HPM_P2
2022/05/31 00:02:01;;;;;;;10.20;6.03;;;;;;;;;;5122912;28;20192;-73
2022/05/31 00:04:28;;;;;;;9.75;5.72;;;;;;;;;;5108328;28;20573;-72
2022/05/31 00:06:54;;;;;;;10.35;5.22;;;;;;;;;;5115600;28;20185;-71
2022/05/31 00:09:20;;;;;;;9.43;6.15;;;;;;;;;;5107873;28;20213;-72
2022/05/31 00:11:47;;;;;;;11.02;5.80;;;;;;;;;;5107599;28;20193;-72
2022/05/31 00:14:14;;;;;;;6.97;5.40;;;;;;;;;;5115258;28;20604;-72
2022/05/31 00:16:40;;;;;;;10.48;6.03;;;;;;;;;;5112771;28;20269;-73
2022/05/31 00:19:06;;;;;;;7.30;5.40;;;;;;;;;;5108923;28;20929;-72
2022/05/31 00:21:35;;;;;;;9.65;5.80;;;;;;;;;;5118569;28;20188;-73
2022/05/31 00:24:01;;;;;;;13.15;5.75;;;;;;;;;;5102186;28;20177;-73
2022/05/31 00:26:27;;;;;;;7.35;5.57;;;;;;;;;;5117227;27;20195;-73
2022/05/31 00:28:53;;;;;;;9.85;6.18;;;;;;;;;;5125538;27;20275;-74
2022/05/31 00:31:19;;;;;;;8.05;6.03;;;;;;;;;;5114109;27;20196;-71
2022/05/31 00:33:45;;;;;;;9.77;5.95;;;;;;;;;;5123827;27;20184;-72
2022/05/31 00:36:11;;;;;;;13.02;6.32;;;;;;;;;;5121044;27;20181;-72
2022/05/31 00:38:38;;;;;;;11.10;6.40;;;;;;;;;;5124209;27;20271;-72
2022/05/31 00:41:23;;;;;;;10.63;6.28;;;;;;;;;;5108788;28;20177;-73
2022/05/31 00:43:49;;;;;;;7.80;5.75;;;;;;;;;;5120703;27;20656;-71
2022/05/31 00:46:16;;;;;;;8.88;6.07;;;;;;;;;;5108930;27;20177;-73
2022/05/31 00:48:47;;;;;;;8.80;6.47;;;;;;;;;;5114381;27;20192;-73
2022/05/31 00:51:15;;;;;;;10.38;6.57;;;;;;;;;;5110640;28;20704;-72
2022/05/31 00:53:43;;;;;;;7.38;6.43;;;;;;;;;;5112001;27;20724;-73
2022/05/31 00:56:23;;;;;;;11.85;5.95;;;;;;;;;;5121103;27;20204;-72
2022/05/31 00:59:01;;;;;;;9.65;5.90;;;;;;;;;;5116584;27;20189;-72
2022/05/31 01:01:28;;;;;;;8.13;6.28;;;;;;;;;;5119079;27;20642;-73
2022/05/31 01:03:55;;;;;;;10.40;6.72;;;;;;;;;;5131699;27;20178;-72
2022/05/31 01:06:21;;;;;;;9.00;6.07;;;;;;;;;;5116412;27;20228;-72
2022/05/31 01:08:47;;;;;;;8.07;6.35;;;;;;;;;;5108334;27;20562;-71
2022/05/31 01:11:38;;;;;;;9.38;5.80;;;;;;;;;;5111877;27;20675;-72
2022/05/31 01:14:31;;;;;;;14.10;6.03;;;;;;;;;;5117345;27;20200;-72
2022/05/31 01:17:29;;;;;;;16.30;6.35;;;;;;;;;;5111091;28;20831;-71
2022/05/31 01:20:27;;;;;;;9.15;5.65;;;;;;;;;;5115993;27;20557;-72
2022/05/31 01:23:16;;;;;;;8.95;6.40;;;;;;;;;;5124570;27;20187;-71
2022/05/31 01:25:57;;;;;;;9.80;6.60;;;;;;;;;;5110097;27;20284;-72
2022/05/31 01:28:33;;;;;;;9.90;6.30;;;;;;;;;;5115217;27;20176;-71
2022/05/31 01:31:11;;;;;;;14.07;6.90;;;;;;;;;;5140271;27;20200;-72
2022/05/31 01:33:44;;;;;;;8.60;6.15;;;;;;;;;;5112748;27;20184;-71
2022/05/31 01:36:15;;;;;;;9.32;6.30;;;;;;;;;;5117390;27;20671;-73
2022/05/31 01:38:46;;;;;;;10.32;6.40;;;;;;;;;;5115199;27;20216;-72
2022/05/31 01:41:12;;;;;;;8.77;6.10;;;;;;;;;;5112776;27;20218;-72
2022/05/31 01:43:41;;;;;;;8.98;6.25;;;;;;;;;;5115132;27;20303;-74
2022/05/31 01:46:10;;;;;;;8.68;6.03;;;;;;;;;;5117694;27;20177;-72
2022/05/31 01:48:38;;;;;;;7.72;5.72;;;;;;;;;;5107257;27;20193;-72
2022/05/31 01:51:05;;;;;;;13.25;5.78;;;;;;;;;;5122521;27;20197;-71
2022/05/31 01:53:33;;;;;;;10.38;6.50;;;;;;;;;;5108228;27;20193;-72
2022/05/31 01:56:01;;;;;;;11.68;5.95;;;;;;;;;;5121158;27;20223;-72
2022/05/31 01:58:29;;;;;;;9.35;5.95;;;;;;;;;;5115593;27;20187;-73
2022/05/31 02:00:56;;;;;;;15.23;6.57;;;;;;;;;;5121011;27;20724;-72
2022/05/31 02:03:23;;;;;;;8.57;6.15;;;;;;;;;;5114701;27;20214;-71
2022/05/31 02:05:50;;;;;;;8.55;6.00;;;;;;;;;;5117447;27;20177;-72
2022/05/31 02:08:19;;;;;;;8.75;5.70;;;;;;;;;;5109313;27;20258;-72
2022/05/31 02:10:46;;;;;;;12.23;6.30;;;;;;;;;;5118183;27;20738;-72
2022/05/31 02:13:14;;;;;;;8.27;6.05;;;;;;;;;;5111518;27;20255;-73
2022/05/31 02:16:05;;;;;;;9.35;6.03;;;;;;;;;;5110143;27;20185;-71
2022/05/31 02:21:58;;;;;;;7.95;5.47;;;;;;;;;;5118486;27;20190;-74
2022/05/31 02:24:25;;;;;;;9.27;6.30;;;;;;;;;;5107848;28;20249;-73
2022/05/31 02:26:52;;;;;;;8.07;5.57;;;;;;;;;;5115745;27;20209;-72
2022/05/31 02:29:20;;;;;;;10.07;6.10;;;;;;;;;;5124240;27;20629;-71
2022/05/31 02:31:46;;;;;;;8.48;5.65;;;;;;;;;;5111702;27;20308;-72
2022/05/31 02:34:14;;;;;;;8.10;5.68;;;;;;;;;;5115391;27;20181;-73
2022/05/31 02:36:41;;;;;;;9.20;6.00;;;;;;;;;;5106619;28;20205;-73
2022/05/31 02:39:07;;;;;;;10.55;5.57;;;;;;;;;;5109745;27;20269;-71
2022/05/31 02:41:39;;;;;;;9.88;6.10;;;;;;;;;;5112070;27;20184;-72
2022/05/31 02:44:06;;;;;;;9.32;5.82;;;;;;;;;;5105031;28;20236;-73
2022/05/31 02:46:35;;;;;;;10.00;5.93;;;;;;;;;;5117121;27;20185;-73
2022/05/31 02:49:02;;;;;;;11.95;6.40;;;;;;;;;;5127850;27;20168;-72
2022/05/31 02:51:28;;;;;;;10.18;5.45;;;;;;;;;;5112175;27;20277;-72
2022/05/31 02:53:54;;;;;;;9.15;5.90;;;;;;;;;;5120933;27;20192;-72
2022/05/31 02:56:34;;;;;;;9.85;5.65;;;;;;;;;;5109178;27;20184;-71
2022/05/31 02:59:18;;;;;;;9.38;5.53;;;;;;;;;;5116774;27;20201;-72
2022/05/31 03:02:20;;;;;;;8.60;5.93;;;;;;;;;;5107794;27;20242;-73
2022/05/31 03:05:04;;;;;;;12.15;5.80;;;;;;;;;;5107165;28;20195;-70
2022/05/31 03:07:50;;;;;;;8.95;5.50;;;;;;;;;;5109664;27;20196;-71
2022/05/31 03:10:19;;;;;;;9.90;5.30;;;;;;;;;;5116898;27;20222;-71
2022/05/31 03:12:45;;;;;;;9.25;5.53;;;;;;;;;;5093633;28;20189;-71
2022/05/31 03:15:14;;;;;;;10.25;6.07;;;;;;;;;;5107079;28;20193;-71
2022/05/31 03:17:43;;;;;;;7.40;5.40;;;;;;;;;;5115250;28;20185;-71
2022/05/31 03:20:12;;;;;;;10.15;5.95;;;;;;;;;;5108280;28;20196;-72
2022/05/31 03:22:42;;;;;;;10.45;5.63;;;;;;;;;;5110101;28;20230;-73
2022/05/31 03:25:09;;;;;;;8.02;5.72;;;;;;;;;;5115312;28;20188;-72
2022/05/31 03:27:36;;;;;;;8.98;5.78;;;;;;;;;;5106214;28;20195;-72
2022/05/31 03:30:03;;;;;;;8.85;5.63;;;;;;;;;;5106035;28;20217;-72
2022/05/31 03:32:30;;;;;;;13.07;5.85;;;;;;;;;;5115597;28;20192;-73
2022/05/31 03:34:56;;;;;;;6.85;5.32;;;;;;;;;;5118420;28;20184;-71
2022/05/31 03:37:22;;;;;;;10.73;5.68;;;;;;;;;;5115670;28;20192;-72
2022/05/31 03:39:48;;;;;;;10.13;5.50;;;;;;;;;;5100273;28;20295;-72
2022/05/31 03:42:14;;;;;;;10.52;5.55;;;;;;;;;;5124513;27;20193;-74
2022/05/31 03:44:41;;;;;;;7.43;5.00;;;;;;;;;;5112124;28;20224;-73
2022/05/31 03:47:33;;;;;;;10.10;5.85;;;;;;;;;;5098906;28;20725;-70
2022/05/31 03:50:29;;;;;;;11.27;5.93;;;;;;;;;;5118275;27;20204;-72
2022/05/31 03:52:56;;;;;;;10.95;5.75;;;;;;;;;;5091964;28;20251;-72
2022/05/31 03:55:23;;;;;;;10.00;6.07;;;;;;;;;;5107165;28;20169;-71
2022/05/31 03:57:50;;;;;;;8.00;5.57;;;;;;;;;;5105173;28;20194;-72
2022/05/31 04:00:44;;;;;;;10.80;5.60;;;;;;;;;;5112259;27;20189;-72
2022/05/31 04:03:18;;;;;;;9.45;5.60;;;;;;;;;;5114829;27;20189;-72
2022/05/31 04:05:46;;;;;;;9.43;5.32;;;;;;;;;;5114309;27;20181;-73
2022/05/31 04:08:12;;;;;;;9.63;5.70;;;;;;;;;;5114573;27;20645;-71
2022/05/31 04:10:40;;;;;;;10.05;6.15;;;;;;;;;;5112155;27;20292;-73
2022/05/31 04:13:07;;;;;;;9.73;5.45;;;;;;;;;;5108916;27;20238;-72
2022/05/31 04:16:10;;;;;;;10.52;5.90;;;;;;;;;;5116621;27;20264;-72
2022/05/31 04:18:41;;;;;;;11.10;5.32;;;;;;;;;;5117992;27;20184;-74
2022/05/31 04:21:09;;;;;;;8.30;6.10;;;;;;;;;;5116333;27;20181;-73
2022/05/31 04:26:43;;;;;;;13.32;5.47;;;;;;;;;;5109779;27;20219;-73
2022/05/31 04:29:28;;;;;;;9.88;5.53;;;;;;;;;;5118324;27;20219;-72
2022/05/31 04:32:26;;;;;;;10.55;6.07;;;;;;;;;;5116553;27;20269;-71
2022/05/31 04:35:06;;;;;;;9.93;5.80;;;;;;;;;;5131565;27;20184;-71
2022/05/31 04:37:32;;;;;;;11.00;5.95;;;;;;;;;;5114812;27;20648;-72
2022/05/31 04:40:07;;;;;;;11.85;6.07;;;;;;;;;;5112471;27;20288;-71
2022/05/31 04:42:54;;;;;;;11.45;5.82;;;;;;;;;;5111160;27;20213;-72
2022/05/31 04:45:37;;;;;;;11.38;6.03;;;;;;;;;;5107982;27;20245;-73
2022/05/31 04:48:26;;;;;;;11.23;5.90;;;;;;;;;;5100624;28;20208;-72
2022/05/31 04:50:54;;;;;;;10.18;5.68;;;;;;;;;;5119890;27;20622;-73
2022/05/31 04:53:22;;;;;;;8.93;6.03;;;;;;;;;;5121350;27;20184;-73
2022/05/31 04:56:23;;;;;;;9.93;5.68;;;;;;;;;;5066750;28;20544;-73
2022/05/31 04:58:52;;;;;;;9.35;5.47;;;;;;;;;;5105422;27;20193;-70
2022/05/31 05:01:18;;;;;;;11.85;6.35;;;;;;;;;;5108988;27;20234;-73
2022/05/31 05:03:47;;;;;;;8.70;6.18;;;;;;;;;;5125320;27;20217;-73
2022/05/31 05:06:14;;;;;;;12.95;6.55;;;;;;;;;;5121052;27;20645;-75
2022/05/31 05:08:43;;;;;;;8.80;6.20;;;;;;;;;;5106974;27;20212;-73
2022/05/31 05:11:12;;;;;;;12.25;6.53;;;;;;;;;;5119153;27;20259;-72
2022/05/31 05:13:50;;;;;;;10.95;6.82;;;;;;;;;;5112034;27;20189;-72
2022/05/31 05:16:49;;;;;;;10.52;6.65;;;;;;;;;;5096314;28;20234;-73
2022/05/31 05:19:16;;;;;;;11.00;6.20;;;;;;;;;;5110547;27;20645;-71
2022/05/31 05:21:46;;;;;;;10.00;6.88;;;;;;;;;;5121530;27;20188;-73
2022/05/31 05:24:12;;;;;;;8.55;5.88;;;;;;;;;;5118996;27;20205;-73
2022/05/31 05:27:04;;;;;;;14.93;8.57;;;;;;;;;;5096752;27;20577;-73
2022/05/31 05:32:45;;;;;;;11.07;7.05;;;;;;;;;;5114805;27;20638;-73
2022/05/31 05:35:26;;;;;;;9.00;6.63;;;;;;;;;;5112388;27;20177;-74
2022/05/31 05:38:01;;;;;;;11.93;6.90;;;;;;;;;;5114990;27;20189;-73
2022/05/31 05:40:34;;;;;;;10.10;7.40;;;;;;;;;;5106098;27;20241;-73
2022/05/31 05:43:09;;;;;;;9.63;7.30;;;;;;;;;;5113568;27;20393;-72
2022/05/31 05:45:55;;;;;;;11.00;7.75;;;;;;;;;;5113826;27;20224;-72
2022/05/31 05:48:21;;;;;;;14.52;8.18;;;;;;;;;;5113350;27;20177;-73
2022/05/31 05:50:48;;;;;;;9.00;7.78;;;;;;;;;;5111320;27;20221;-74
2022/05/31 05:53:32;;;;;;;10.73;7.57;;;;;;;;;;5110768;27;20650;-73
2022/05/31 05:56:17;;;;;;;12.52;8.10;;;;;;;;;;5112355;27;20701;-76
2022/05/31 05:59:02;;;;;;;12.15;7.55;;;;;;;;;;5119024;27;20683;-73
2022/05/31 06:01:51;;;;;;;10.68;8.45;;;;;;;;;;5103086;27;20184;-75
2022/05/31 06:04:35;;;;;;;17.75;8.80;;;;;;;;;;5114978;27;20205;-73
2022/05/31 06:07:04;;;;;;;10.93;8.32;;;;;;;;;;5108603;27;20195;-73
2022/05/31 06:09:31;;;;;;;16.95;8.82;;;;;;;;;;5109963;27;20220;-72
2022/05/31 06:12:18;;;;;;;15.15;8.32;;;;;;;;;;5123829;27;20185;-73
2022/05/31 06:15:05;;;;;;;13.40;8.23;;;;;;;;;;5110319;27;20174;-74
2022/05/31 06:17:33;;;;;;;19.02;8.82;;;;;;;;;;5111316;27;20662;-73
2022/05/31 06:20:01;;;;;;;12.70;8.77;;;;;;;;;;5106173;27;20568;-73
2022/05/31 06:22:28;;;;;;;18.00;8.75;;;;;;;;;;5093340;28;20640;-72
2022/05/31 06:25:08;;;;;;;14.80;8.20;;;;;;;;;;5107620;27;20177;-73
2022/05/31 06:28:07;;;;;;;11.05;7.97;;;;;;;;;;5086910;27;20552;-73
2022/05/31 06:30:33;;;;;;;13.10;8.60;;;;;;;;;;5112482;27;20298;-71
2022/05/31 06:32:59;;;;;;;10.93;7.88;;;;;;;;;;5106560;28;20318;-71
2022/05/31 06:35:26;;;;;;;13.13;8.23;;;;;;;;;;5107709;27;20178;-71
2022/05/31 06:37:58;;;;;;;95.32;23.42;;;;;;;;;;5110177;27;20177;-72
2022/05/31 06:40:24;;;;;;;10.95;8.50;;;;;;;;;;5105165;28;20189;-73
2022/05/31 06:43:16;;;;;;;14.80;9.10;;;;;;;;;;5114472;27;20266;-73
2022/05/31 06:46:05;;;;;;;10.23;8.40;;;;;;;;;;5108798;27;20204;-72
2022/05/31 06:48:43;;;;;;;12.30;8.93;;;;;;;;;;5108265;27;20223;-72
2022/05/31 06:57:40;;;;;;;13.88;8.90;;;;;;;;;;5113423;27;20758;-73
2022/05/31 07:00:20;;;;;;;15.75;9.20;;;;;;;;;;5112557;27;20188;-72
2022/05/31 07:02:48;;;;;;;12.77;9.20;;;;;;;;;;5096887;28;20318;-73
2022/05/31 07:05:14;;;;;;;16.65;9.57;;;;;;;;;;5115462;27;20335;-74
2022/05/31 07:07:41;;;;;;;12.20;8.57;;;;;;;;;;5100617;27;20229;-74
2022/05/31 07:10:33;;;;;;;11.95;6.68;;;;;;;;;;5115587;27;20271;-73
2022/05/31 07:13:17;;;;;;;9.75;6.05;;;;;;;;;;5108325;28;20641;-72
2022/05/31 07:16:02;;;;;;;10.95;5.93;;;;;;;;;;5108187;28;20226;-73
2022/05/31 07:18:46;;;;;;;13.18;5.70;;;;;;;;;;5113808;28;20189;-73
2022/05/31 07:21:13;;;;;;;8.10;5.25;;;;;;;;;;5108671;28;20177;-73
2022/05/31 07:23:40;;;;;;;11.38;5.47;;;;;;;;;;5107530;28;20188;-73
2022/05/31 07:26:08;;;;;;;10.00;5.43;;;;;;;;;;5115068;28;20190;-74
2022/05/31 07:28:34;;;;;;;11.10;5.47;;;;;;;;;;5109003;28;20325;-74
2022/05/31 07:31:02;;;;;;;6.95;3.97;;;;;;;;;;5106978;28;20224;-73
2022/05/31 07:33:31;;;;;;;7.22;3.92;;;;;;;;;;5111199;28;20275;-72
2022/05/31 07:35:59;;;;;;;8.15;4.40;;;;;;;;;;5110924;28;20189;-73
2022/05/31 07:38:26;;;;;;;8.85;5.30;;;;;;;;;;5120917;27;20177;-74
2022/05/31 07:40:53;;;;;;;10.95;3.65;;;;;;;;;;5111971;27;20287;-73
2022/05/31 07:43:20;;;;;;;8.13;4.28;;;;;;;;;;5113757;27;20725;-73
2022/05/31 07:45:49;;;;;;;9.88;4.32;;;;;;;;;;5111916;27;20280;-73
2022/05/31 07:48:15;;;;;;;8.63;4.28;;;;;;;;;;5112592;27;20209;-72
2022/05/31 07:50:44;;;;;;;7.97;3.80;;;;;;;;;;5120516;27;20213;-73
2022/05/31 07:53:48;;;;;;;7.65;4.30;;;;;;;;;;5115436;27;20612;-74
2022/05/31 07:56:34;;;;;;;7.68;5.00;;;;;;;;;;5120702;27;20271;-73
2022/05/31 07:59:27;;;;;;;10.68;4.90;;;;;;;;;;5117572;27;20275;-72
2022/05/31 08:02:31;;;;;;;6.45;4.30;;;;;;;;;;5113379;27;20234;-72
2022/05/31 08:04:57;;;;;;;10.10;4.43;;;;;;;;;;5139028;27;20621;-73
2022/05/31 08:07:23;;;;;;;9.20;3.92;;;;;;;;;;5129770;27;20295;-73
2022/05/31 08:09:49;;;;;;;8.38;4.50;;;;;;;;;;5119683;27;20205;-73
2022/05/31 08:12:15;;;;;;;9.02;4.80;;;;;;;;;;5118763;27;20186;-73
2022/05/31 08:14:41;;;;;;;7.63;4.07;;;;;;;;;;5109191;27;21220;-74
2022/05/31 08:17:09;;;;;;;9.70;4.70;;;;;;;;;;5124707;27;20936;-73
2022/05/31 08:19:36;;;;;;;7.50;3.97;;;;;;;;;;5118090;27;20918;-74
2022/05/31 08:22:03;;;;;;;8.15;3.60;;;;;;;;;;5112832;27;20210;-73
2022/05/31 08:24:30;;;;;;;10.40;5.03;;;;;;;;;;5118841;27;20192;-73
2022/05/31 08:26:56;;;;;;;12.63;5.15;;;;;;;;;;5115766;27;20189;-73
2022/05/31 08:29:23;;;;;;;11.90;4.78;;;;;;;;;;5111843;27;20177;-74
2022/05/31 08:31:49;;;;;;;11.20;5.45;;;;;;;;;;5124821;27;20173;-74
2022/05/31 08:34:15;;;;;;;10.65;4.32;;;;;;;;;;5110570;27;20182;-74
2022/05/31 08:36:41;;;;;;;11.20;4.50;;;;;;;;;;5124436;27;20220;-74
2022/05/31 08:39:08;;;;;;;10.73;5.40;;;;;;;;;;5117369;27;20185;-73
2022/05/31 08:41:43;;;;;;;7.32;4.75;;;;;;;;;;5117057;27;20185;-73
2022/05/31 08:44:19;;;;;;;11.45;4.97;;;;;;;;;;5114902;27;20885;-73
2022/05/31 08:47:08;;;;;;;10.70;4.70;;;;;;;;;;5119797;27;20230;-74
2022/05/31 08:52:46;;;;;;;9.05;4.53;;;;;;;;;;5076427;28;20611;-71
2022/05/31 08:58:12;;;;;;;10.20;4.97;;;;;;;;;;5111387;27;20531;-70
2022/05/31 09:00:43;;;;;;;8.50;5.30;;;;;;;;;;5116896;27;20204;-70
2022/05/31 09:03:16;;;;;;;7.75;4.32;;;;;;;;;;5108173;27;20192;-70
2022/05/31 09:05:51;;;;;;;8.35;4.10;;;;;;;;;;5109370;28;20173;-70
2022/05/31 09:08:25;;;;;;;12.77;4.57;;;;;;;;;;5112047;27;20279;-72
2022/05/31 09:11:04;;;;;;;9.05;4.72;;;;;;;;;;5107837;27;20220;-73
2022/05/31 09:13:42;;;;;;;12.57;4.40;;;;;;;;;;5120918;27;20184;-74
2022/05/31 09:16:10;;;;;;;11.57;3.85;;;;;;;;;;5116465;27;20185;-72
2022/05/31 09:18:48;;;;;;;8.40;4.20;;;;;;;;;;5113296;27;20177;-71
2022/05/31 09:21:17;;;;;;;7.93;4.00;;;;;;;;;;5107034;27;20184;-72
2022/05/31 09:23:45;;;;;;;7.30;3.85;;;;;;;;;;5109200;28;20196;-73
2022/05/31 09:26:14;;;;;;;12.43;3.90;;;;;;;;;;5108284;28;20185;-72
2022/05/31 09:28:48;;;;;;;7.43;3.88;;;;;;;;;;5106322;27;20189;-72
2022/05/31 09:31:19;;;;;;;6.80;3.40;;;;;;;;;;5104825;28;20265;-70
2022/05/31 09:34:11;;;;;;;6.03;3.03;;;;;;;;;;5106386;27;20196;-71
2022/05/31 09:36:56;;;;;;;8.15;3.58;;;;;;;;;;5087400;27;20197;-71
2022/05/31 09:39:29;;;;;;;10.60;3.97;;;;;;;;;;5109062;27;20585;-73
2022/05/31 09:41:58;;;;;;;8.25;3.47;;;;;;;;;;5108815;27;20260;-71
2022/05/31 09:44:29;;;;;;;9.10;3.33;;;;;;;;;;5125718;27;20220;-72
2022/05/31 09:47:03;;;;;;;8.07;3.25;;;;;;;;;;5106654;28;20183;-74
2022/05/31 09:49:39;;;;;;;5.20;2.60;;;;;;;;;;5113436;27;20188;-73
2022/05/31 09:52:08;;;;;;;8.90;4.30;;;;;;;;;;5113816;27;20184;-76
2022/05/31 09:58:16;;;;;;;7.35;3.60;;;;;;;;;;5113564;27;20222;-73
2022/05/31 10:01:12;;;;;;;9.50;3.75;;;;;;;;;;5086067;27;20200;-75
2022/05/31 10:03:48;;;;;;;10.48;3.80;;;;;;;;;;5107802;28;20180;-73
2022/05/31 10:06:14;;;;;;;9.13;4.18;;;;;;;;;;5104030;28;20185;-74
2022/05/31 10:08:41;;;;;;;9.38;5.38;;;;;;;;;;5108756;27;20532;-69
2022/05/31 10:11:13;;;;;;;8.98;4.32;;;;;;;;;;5107644;27;20234;-69
2022/05/31 10:13:41;;;;;;;6.63;3.75;;;;;;;;;;5116437;27;20228;-70
2022/05/31 10:16:23;;;;;;;11.88;5.13;;;;;;;;;;5115397;27;20181;-68
2022/05/31 10:18:57;;;;;;;7.38;3.03;;;;;;;;;;5108746;28;20604;-71
2022/05/31 10:21:28;;;;;;;6.18;3.53;;;;;;;;;;5106632;27;20192;-76
2022/05/31 10:23:55;;;;;;;6.03;3.35;;;;;;;;;;5114277;27;20346;-73
2022/05/31 10:26:41;;;;;;;7.30;3.80;;;;;;;;;;5110031;27;20197;-75
2022/05/31 10:29:25;;;;;;;10.40;4.60;;;;;;;;;;5114999;27;20194;-74
2022/05/31 10:32:42;;;;;;;12.32;5.32;;;;;;;;;;5063438;28;20190;-75
2022/05/31 10:35:25;;;;;;;7.05;4.55;;;;;;;;;;5117607;27;20181;-73
2022/05/31 10:37:57;;;;;;;6.75;4.38;;;;;;;;;;5111103;27;20552;-74
2022/05/31 10:40:44;;;;;;;8.70;4.65;;;;;;;;;;5110554;27;20350;-73
2022/05/31 10:43:10;;;;;;;6.15;3.80;;;;;;;;;;5106851;27;20221;-73
2022/05/31 10:45:38;;;;;;;5.35;3.85;;;;;;;;;;5109226;27;20192;-72
2022/05/31 10:48:04;;;;;;;13.88;4.40;;;;;;;;;;5106966;28;20195;-73
2022/05/31 10:50:49;;;;;;;6.72;4.10;;;;;;;;;;5107082;28;20213;-72
2022/05/31 10:53:25;;;;;;;9.07;4.30;;;;;;;;;;5121367;27;20188;-71
2022/05/31 10:55:57;;;;;;;12.93;4.38;;;;;;;;;;5107291;28;20188;-73
2022/05/31 10:58:33;;;;;;;7.30;3.72;;;;;;;;;;5108324;27;20230;-74
2022/05/31 11:00:59;;;;;;;9.57;4.15;;;;;;;;;;5112579;27;20199;-73
2022/05/31 11:03:38;;;;;;;11.75;3.80;;;;;;;;;;5118194;27;20184;-74
2022/05/31 11:06:23;;;;;;;8.88;3.60;;;;;;;;;;5112935;27;20281;-71
2022/05/31 11:11:37;;;;;;;6.15;3.50;;;;;;;;;;5116659;27;20746;-74
2022/05/31 11:14:26;;;;;;;7.03;3.80;;;;;;;;;;5094597;28;20186;-74
2022/05/31 11:16:55;;;;;;;6.85;3.75;;;;;;;;;;5115685;28;20221;-72
2022/05/31 11:19:30;;;;;;;7.07;3.63;;;;;;;;;;5113578;28;20185;-73
2022/05/31 11:22:06;;;;;;;5.78;3.80;;;;;;;;;;5108373;28;20192;-73
2022/05/31 11:24:35;;;;;;;7.28;4.20;;;;;;;;;;5117722;28;20180;-73
2022/05/31 11:27:07;;;;;;;8.52;4.88;;;;;;;;;;5106917;28;20177;-73
2022/05/31 11:29:43;;;;;;;7.65;4.63;;;;;;;;;;5115790;28;20181;-73
2022/05/31 11:32:24;;;;;;;7.07;3.67;;;;;;;;;;5110244;28;20267;-74
2022/05/31 11:35:03;;;;;;;5.70;4.35;;;;;;;;;;5115708;28;20191;-73
2022/05/31 11:37:32;;;;;;;11.23;3.72;;;;;;;;;;5116488;28;20195;-72
2022/05/31 11:39:58;;;;;;;8.13;3.60;;;;;;;;;;5117373;28;20472;-75
2022/05/31 11:42:24;;;;;;;44.28;8.98;;;;;;;;;;5107990;28;20192;-75
2022/05/31 11:45:13;;;;;;;15.43;5.30;;;;;;;;;;5115138;28;20318;-75
2022/05/31 11:47:58;;;;;;;6.65;4.13;;;;;;;;;;5108393;27;20220;-74
2022/05/31 11:50:30;;;;;;;10.35;3.97;;;;;;;;;;5119327;28;20222;-75
2022/05/31 11:53:22;;;;;;;6.90;3.58;;;;;;;;;;5112172;28;20235;-70
2022/05/31 11:55:50;;;;;;;7.75;3.17;;;;;;;;;;5121433;27;20181;-72
2022/05/31 11:58:16;;;;;;;23.30;4.18;;;;;;;;;;5114651;28;20522;-74
2022/05/31 12:00:48;;;;;;;10.32;5.00;;;;;;;;;;5092647;28;20194;-74
2022/05/31 12:03:17;;;;;;;15.05;5.05;;;;;;;;;;5106432;28;20193;-73
2022/05/31 12:05:46;;;;;;;10.52;4.45;;;;;;;;;;5106450;28;20657;-75
2022/05/31 12:08:16;;;;;;;14.63;5.05;;;;;;;;;;5108048;28;20193;-74
2022/05/31 12:10:44;;;;;;;8.95;4.57;;;;;;;;;;5104202;28;20205;-73
2022/05/31 12:13:11;;;;;;;12.30;5.05;;;;;;;;;;5111134;28;20183;-74
2022/05/31 12:15:40;;;;;;;9.57;4.40;;;;;;;;;;5110645;28;20186;-74
2022/05/31 12:18:06;;;;;;;6.93;5.05;;;;;;;;;;5107241;28;21583;-76
2022/05/31 12:20:35;;;;;;;10.45;4.43;;;;;;;;;;5109553;28;20224;-74
2022/05/31 12:23:23;;;;;;;11.73;4.07;;;;;;;;;;5109836;28;20185;-73
2022/05/31 12:25:53;;;;;;;7.38;3.80;;;;;;;;;;5113192;27;20197;-72
2022/05/31 12:28:22;;;;;;;8.20;4.70;;;;;;;;;;5115345;27;20189;-74
2022/05/31 12:30:56;;;;;;;7.97;3.00;;;;;;;;;;5109862;27;20609;-73
2022/05/31 12:33:27;;;;;;;9.00;3.67;;;;;;;;;;5121718;27;20683;-73
2022/05/31 12:35:55;;;;;;;9.90;3.40;;;;;;;;;;5109271;27;20540;-72
2022/05/31 12:38:21;;;;;;;13.20;7.30;;;;;;;;;;5120682;27;20237;-74
2022/05/31 12:40:48;;;;;;;14.40;8.25;;;;;;;;;;5108679;27;20194;-73
2022/05/31 12:43:16;;;;;;;11.93;7.57;;;;;;;;;;5120892;27;20239;-74
2022/05/31 12:45:50;;;;;;;16.27;7.20;;;;;;;;;;5119784;27;20196;-74
2022/05/31 12:48:24;;;;;;;9.13;5.65;;;;;;;;;;5111788;28;20661;-75
2022/05/31 12:50:51;;;;;;;8.00;5.75;;;;;;;;;;5109599;27;20559;-74
2022/05/31 12:53:19;;;;;;;11.55;5.55;;;;;;;;;;5115817;27;20181;-73
2022/05/31 12:55:46;;;;;;;8.52;5.20;;;;;;;;;;5109223;27;20233;-73
2022/05/31 12:58:30;;;;;;;7.18;4.75;;;;;;;;;;5114980;27;20177;-75
2022/05/31 13:00:56;;;;;;;9.00;4.90;;;;;;;;;;5121413;27;20583;-74
2022/05/31 13:03:34;;;;;;;8.70;4.82;;;;;;;;;;5117807;27;20708;-73
2022/05/31 13:06:04;;;;;;;8.40;4.25;;;;;;;;;;5114022;27;20185;-73
2022/05/31 13:08:52;;;;;;;5.63;4.15;;;;;;;;;;5124962;27;20263;-74
2022/05/31 13:20:00;;;;;;;12.07;6.82;;;;;;;;;;5115986;27;20188;-74
2022/05/31 13:22:26;;;;;;;10.63;6.93;;;;;;;;;;5122593;27;20242;-73
2022/05/31 13:25:04;;;;;;;13.25;7.15;;;;;;;;;;5113498;27;20207;-74
2022/05/31 13:27:32;;;;;;;10.23;6.97;;;;;;;;;;5111351;27;20193;-74
2022/05/31 13:30:09;;;;;;;13.10;7.00;;;;;;;;;;5112537;27;20233;-74
2022/05/31 13:32:36;;;;;;;11.43;7.00;;;;;;;;;;5114529;27;20204;-74
2022/05/31 13:35:15;;;;;;;15.32;7.88;;;;;;;;;;5106905;27;20190;-73
2022/05/31 13:37:50;;;;;;;11.30;6.85;;;;;;;;;;5110394;27;20193;-75
2022/05/31 13:40:22;;;;;;;10.77;7.15;;;;;;;;;;5124577;27;20220;-75
2022/05/31 13:42:48;;;;;;;11.57;6.60;;;;;;;;;;5127136;27;20585;-74
2022/05/31 13:45:18;;;;;;;9.27;6.63;;;;;;;;;;5113509;27;20191;-74
2022/05/31 13:47:49;;;;;;;10.43;6.38;;;;;;;;;;5117176;27;20185;-73
2022/05/31 13:50:24;;;;;;;13.82;6.85;;;;;;;;;;5113395;27;20211;-73
2022/05/31 13:52:51;;;;;;;12.40;5.95;;;;;;;;;;5119857;27;20168;-73
2022/05/31 13:55:23;;;;;;;12.00;6.00;;;;;;;;;;5112437;27;20177;-74
2022/05/31 13:57:53;;;;;;;8.45;5.65;;;;;;;;;;5113493;27;20600;-74
2022/05/31 14:00:31;;;;;;;9.88;5.82;;;;;;;;;;5102385;27;20197;-74
2022/05/31 14:03:05;;;;;;;8.20;5.25;;;;;;;;;;5137768;27;20184;-74
2022/05/31 14:05:48;;;;;;;10.30;5.15;;;;;;;;;;5105389;28;20636;-74
2022/05/31 14:08:21;;;;;;;7.40;4.50;;;;;;;;;;5117253;27;20548;-75
2022/05/31 14:10:50;;;;;;;8.18;4.60;;;;;;;;;;5117940;27;20216;-73
2022/05/31 14:13:22;;;;;;;9.13;4.43;;;;;;;;;;5110787;27;20191;-73
2022/05/31 14:15:48;;;;;;;7.05;4.03;;;;;;;;;;5107516;28;20173;-73
2022/05/31 14:18:16;;;;;;;7.53;4.20;;;;;;;;;;5114070;27;20565;-74
2022/05/31 14:20:44;;;;;;;6.95;4.07;;;;;;;;;;5115256;27;20200;-74
2022/05/31 14:23:18;;;;;;;8.25;3.95;;;;;;;;;;5116162;27;20622;-74
2022/05/31 14:25:49;;;;;;;6.05;3.78;;;;;;;;;;5107847;27;20193;-74
2022/05/31 14:28:16;;;;;;;6.68;4.10;;;;;;;;;;5093010;27;21040;-75
2022/05/31 14:30:57;;;;;;;9.85;4.72;;;;;;;;;;5113166;27;20793;-73
2022/05/31 14:33:25;;;;;;;7.43;3.95;;;;;;;;;;5113775;27;20186;-74
2022/05/31 14:35:53;;;;;;;7.65;3.60;;;;;;;;;;5116544;27;20193;-74
2022/05/31 14:38:23;;;;;;;6.70;3.63;;;;;;;;;;5116132;27;20645;-74
2022/05/31 14:40:56;;;;;;;8.13;4.50;;;;;;;;;;5105111;27;20184;-74
2022/05/31 14:43:28;;;;;;;9.20;4.70;;;;;;;;;;5115050;27;20225;-74
2022/05/31 14:45:54;;;;;;;8.93;4.57;;;;;;;;;;5105582;27;20194;-77
2022/05/31 14:48:36;;;;;;;8.43;3.95;;;;;;;;;;5121853;27;20189;-76
2022/05/31 14:51:10;;;;;;;5.45;4.03;;;;;;;;;;5112518;27;20658;-75
2022/05/31 14:53:37;;;;;;;9.45;4.40;;;;;;;;;;5114266;27;20188;-72
2022/05/31 14:56:03;;;;;;;10.38;4.65;;;;;;;;;;5111309;27;21021;-72
2022/05/31 14:58:40;;;;;;;8.88;4.70;;;;;;;;;;5105414;28;20217;-71
2022/05/31 15:01:28;;;;;;;11.07;4.80;;;;;;;;;;5104074;27;20318;-72
2022/05/31 15:04:00;;;;;;;8.55;4.70;;;;;;;;;;5107291;28;20303;-70
2022/05/31 15:06:28;;;;;;;8.63;4.53;;;;;;;;;;5106811;28;20185;-69
2022/05/31 15:09:02;;;;;;;8.40;4.95;;;;;;;;;;5105786;28;20216;-71
2022/05/31 15:19:44;;;;;;;7.63;4.38;;;;;;;;;;5104907;28;20216;-73
2022/05/31 15:22:10;;;;;;;9.93;4.38;;;;;;;;;;5108504;27;20265;-72
2022/05/31 15:24:36;;;;;;;6.32;4.55;;;;;;;;;;5107147;28;20181;-71
2022/05/31 15:27:12;;;;;;;9.27;5.00;;;;;;;;;;5106972;28;20176;-74
2022/05/31 15:29:38;;;;;;;6.38;4.45;;;;;;;;;;5110709;28;20184;-71
2022/05/31 15:32:04;;;;;;;8.23;4.40;;;;;;;;;;5104997;28;20192;-74
2022/05/31 15:34:32;;;;;;;7.53;3.70;;;;;;;;;;5111309;28;20173;-72
2022/05/31 15:37:01;;;;;;;6.45;2.85;;;;;;;;;;5105938;28;20185;-71
2022/05/31 15:39:28;;;;;;;5.32;2.65;;;;;;;;;;5117798;28;20241;-71
2022/05/31 15:41:54;;;;;;;7.07;2.80;;;;;;;;;;5108822;28;20210;-70
2022/05/31 15:44:21;;;;;;;4.28;2.67;;;;;;;;;;5110983;28;20246;-73
2022/05/31 15:46:47;;;;;;;7.43;2.38;;;;;;;;;;5104509;28;20264;-71
2022/05/31 15:49:14;;;;;;;6.53;2.55;;;;;;;;;;5109014;28;20177;-74
2022/05/31 15:51:42;;;;;;;4.80;2.10;;;;;;;;;;5094945;28;20209;-73
2022/05/31 15:54:13;;;;;;;4.72;2.20;;;;;;;;;;5108149;28;20184;-70
2022/05/31 15:56:39;;;;;;;8.75;2.97;;;;;;;;;;5110592;28;20242;-75
2022/05/31 15:59:06;;;;;;;5.57;2.30;;;;;;;;;;5110097;27;20177;-70